sensor_id;sensor_type;location;lat;lon;timestamp;pressure;altitude;pressure_sealevel;temperature;humidity
52249;BME280;38541;48.130;8.378;2024-03-02T00:00:08;91579.81;;;5.41;72.53
52249;BME280;38541;48.130;8.378;2024-03-02T00:02:44;91583.19;;;5.36;72.43
52249;BME280;38541;48.130;8.378;2024-03-02T00:05:11;91579.81;;;5.31;72.16
52249;BME280;38541;48.130;8.378;2024-03-02T00:07:41;91585.78;;;5.26;71.84
52249;BME280;38541;48.130;8.378;2024-03-02T00:10:09;91583.44;;;5.24;72.31
52249;BME280;38541;48.130;8.378;2024-03-02T00:12:40;91585.75;;;5.21;71.76
52249;BME280;38541;48.130;8.378;2024-03-02T00:18:14;91585.75;;;5.05;71.32
52249;BME280;38541;48.130;8.378;2024-03-02T00:20:42;91589.09;;;5.00;71.53
52249;BME280;38541;48.130;8.378;2024-03-02T00:23:10;91588.25;;;4.79;70.71
52249;BME280;38541;48.130;8.378;2024-03-02T00:25:44;91591.88;;;4.68;71.74
52249;BME280;38541;48.130;8.378;2024-03-02T00:28:23;91591.34;;;4.66;73.23
52249;BME280;38541;48.130;8.378;2024-03-02T00:31:07;91584.59;;;4.75;73.26
52249;BME280;38541;48.130;8.378;2024-03-02T00:33:36;91582.00;;;4.75;72.76
52249;BME280;38541;48.130;8.378;2024-03-02T00:36:03;91579.38;;;4.70;72.31
52249;BME280;38541;48.130;8.378;2024-03-02T00:38:31;91575.22;;;4.69;72.80
52249;BME280;38541;48.130;8.378;2024-03-02T00:41:05;91598.88;;;4.72;73.18
52249;BME280;38541;48.130;8.378;2024-03-02T00:46:19;91592.84;;;4.62;73.01
52249;BME280;38541;48.130;8.378;2024-03-02T00:48:56;91593.88;;;4.55;72.88
52249;BME280;38541;48.130;8.378;2024-03-02T00:51:26;91595.16;;;4.53;72.95
52249;BME280;38541;48.130;8.378;2024-03-02T00:53:54;91593.28;;;4.43;72.42
52249;BME280;38541;48.130;8.378;2024-03-02T00:56:24;91582.38;;;4.41;72.55
52249;BME280;38541;48.130;8.378;2024-03-02T00:58:52;91583.94;;;4.42;72.60
52249;BME280;38541;48.130;8.378;2024-03-02T01:01:19;91584.97;;;4.41;72.73
52249;BME280;38541;48.130;8.378;2024-03-02T01:03:49;91588.59;;;4.40;72.86
52249;BME280;38541;48.130;8.378;2024-03-02T01:06:16;91586.22;;;4.33;72.45
52249;BME280;38541;48.130;8.378;2024-03-02T01:08:43;91585.66;;;4.21;71.67
52249;BME280;38541;48.130;8.378;2024-03-02T01:11:10;91579.63;;;4.15;71.87
52249;BME280;38541;48.130;8.378;2024-03-02T01:13:37;91581.19;;;4.16;72.35
52249;BME280;38541;48.130;8.378;2024-03-02T01:16:04;91587.41;;;4.10;72.08
52249;BME280;38541;48.130;8.378;2024-03-02T01:18:30;91586.28;;;4.00;73.01
52249;BME280;38541;48.130;8.378;2024-03-02T01:20:57;91588.66;;;4.02;73.55
52249;BME280;38541;48.130;8.378;2024-03-02T01:23:24;91580.56;;;3.98;72.98
52249;BME280;38541;48.130;8.378;2024-03-02T01:25:51;91588.84;;;3.90;72.04
52249;BME280;38541;48.130;8.378;2024-03-02T01:28:18;91586.97;;;3.80;71.19
52249;BME280;38541;48.130;8.378;2024-03-02T01:30:45;91583.72;;;3.68;71.39
52249;BME280;38541;48.130;8.378;2024-03-02T01:33:12;91585.53;;;3.67;72.36
52249;BME280;38541;48.130;8.378;2024-03-02T01:35:39;91591.50;;;3.63;71.94
52249;BME280;38541;48.130;8.378;2024-03-02T01:38:05;91592.72;;;3.55;72.54
52249;BME280;38541;48.130;8.378;2024-03-02T01:40:33;91584.69;;;3.56;72.81
52249;BME280;38541;48.130;8.378;2024-03-02T01:43:00;91580.25;;;3.52;73.02
52249;BME280;38541;48.130;8.378;2024-03-02T01:45:27;91585.44;;;3.52;73.24
52249;BME280;38541;48.130;8.378;2024-03-02T01:47:53;91584.06;;;3.44;72.90
52249;BME280;38541;48.130;8.378;2024-03-02T01:50:30;91586.38;;;3.40;72.65
52249;BME280;38541;48.130;8.378;2024-03-02T01:52:58;91579.34;;;3.41;72.75
52249;BME280;38541;48.130;8.378;2024-03-02T01:55:25;91581.69;;;3.37;72.25
52249;BME280;38541;48.130;8.378;2024-03-02T01:57:52;91581.88;;;3.31;71.78
52249;BME280;38541;48.130;8.378;2024-03-02T02:00:19;91577.94;;;3.28;72.60
52249;BME280;38541;48.130;8.378;2024-03-02T02:02:47;91573.75;;;3.22;71.52
52249;BME280;38541;48.130;8.378;2024-03-02T02:05:14;91575.81;;;3.20;71.67
52249;BME280;38541;48.130;8.378;2024-03-02T02:07:41;91572.13;;;3.16;71.39
52249;BME280;38541;48.130;8.378;2024-03-02T02:10:10;91571.00;;;3.06;71.74
52249;BME280;38541;48.130;8.378;2024-03-02T02:12:37;91572.53;;;3.02;71.90
52249;BME280;38541;48.130;8.378;2024-03-02T02:15:21;91569.13;;;3.02;73.08
52249;BME280;38541;48.130;8.378;2024-03-02T02:17:47;91567.88;;;3.04;72.92
52249;BME280;38541;48.130;8.378;2024-03-02T02:20:14;91574.09;;;3.03;72.48
52249;BME280;38541;48.130;8.378;2024-03-02T02:22:40;91572.53;;;3.02;72.39
52249;BME280;38541;48.130;8.378;2024-03-02T02:25:07;91562.59;;;2.94;72.18
52249;BME280;38541;48.130;8.378;2024-03-02T02:27:33;91570.84;;;2.91;71.90
52249;BME280;38541;48.130;8.378;2024-03-02T02:30:00;91563.81;;;2.86;72.20
52249;BME280;38541;48.130;8.378;2024-03-02T02:32:27;91558.84;;;2.84;71.81
52249;BME280;38541;48.130;8.378;2024-03-02T02:34:54;91561.69;;;2.83;72.09
52249;BME280;38541;48.130;8.378;2024-03-02T02:37:20;91567.34;;;2.80;71.17
52249;BME280;38541;48.130;8.378;2024-03-02T02:39:47;91564.94;;;2.73;71.06
52249;BME280;38541;48.130;8.378;2024-03-02T02:42:13;91566.22;;;2.70;71.01
52249;BME280;38541;48.130;8.378;2024-03-02T02:44:40;91558.94;;;2.67;71.29
52249;BME280;38541;48.130;8.378;2024-03-02T02:47:06;91557.59;;;2.65;71.35
52249;BME280;38541;48.130;8.378;2024-03-02T02:49:33;91553.44;;;2.64;71.80
52249;BME280;38541;48.130;8.378;2024-03-02T02:51:59;91552.59;;;2.58;71.41
52249;BME280;38541;48.130;8.378;2024-03-02T02:54:26;91544.50;;;2.54;72.20
52249;BME280;38541;48.130;8.378;2024-03-02T02:56:52;91541.38;;;2.52;70.85
52249;BME280;38541;48.130;8.378;2024-03-02T02:59:19;91544.25;;;2.51;71.24
52249;BME280;38541;48.130;8.378;2024-03-02T03:01:45;91544.97;;;2.46;70.80
52249;BME280;38541;48.130;8.378;2024-03-02T03:04:12;91549.28;;;2.40;70.44
52249;BME280;38541;48.130;8.378;2024-03-02T03:06:39;91543.09;;;2.41;71.11
52249;BME280;38541;48.130;8.378;2024-03-02T03:09:05;91542.31;;;2.41;71.90
52249;BME280;38541;48.130;8.378;2024-03-02T03:11:32;91543.34;;;2.40;71.87
52249;BME280;38541;48.130;8.378;2024-03-02T03:13:58;91539.09;;;2.34;71.83
52249;BME280;38541;48.130;8.378;2024-03-02T03:16:26;91540.63;;;2.30;71.68
52249;BME280;38541;48.130;8.378;2024-03-02T03:18:53;91534.34;;;2.25;71.67
52249;BME280;38541;48.130;8.378;2024-03-02T03:21:20;91542.84;;;2.21;70.92
52249;BME280;38541;48.130;8.378;2024-03-02T03:23:46;91547.00;;;2.22;71.84
52249;BME280;38541;48.130;8.378;2024-03-02T03:26:13;91544.19;;;2.23;71.90
52249;BME280;38541;48.130;8.378;2024-03-02T03:28:39;91538.44;;;2.21;72.04
52249;BME280;38541;48.130;8.378;2024-03-02T03:31:06;91536.03;;;2.14;70.75
52249;BME280;38541;48.130;8.378;2024-03-02T03:33:33;91549.69;;;2.10;70.73
52249;BME280;38541;48.130;8.378;2024-03-02T03:36:00;91551.53;;;2.09;70.97
52249;BME280;38541;48.130;8.378;2024-03-02T03:38:26;91546.56;;;2.08;71.04
52249;BME280;38541;48.130;8.378;2024-03-02T03:40:53;91547.00;;;1.99;71.57
52249;BME280;38541;48.130;8.378;2024-03-02T03:43:19;91542.03;;;1.98;71.81
52249;BME280;38541;48.130;8.378;2024-03-02T03:45:46;91551.69;;;2.03;71.32
52249;BME280;38541;48.130;8.378;2024-03-02T03:48:12;91546.50;;;2.03;71.52
52249;BME280;38541;48.130;8.378;2024-03-02T03:50:39;91542.09;;;2.03;71.47
52249;BME280;38541;48.130;8.378;2024-03-02T03:53:05;91545.47;;;2.04;71.85
52249;BME280;38541;48.130;8.378;2024-03-02T03:55:32;91545.66;;;1.97;71.80
52249;BME280;38541;48.130;8.378;2024-03-02T03:57:59;91538.09;;;1.95;72.35
52249;BME280;38541;48.130;8.378;2024-03-02T04:00:25;91548.19;;;1.92;71.82
52249;BME280;38541;48.130;8.378;2024-03-02T04:02:52;91547.72;;;1.78;70.78
52249;BME280;38541;48.130;8.378;2024-03-02T04:05:18;91552.28;;;1.70;71.09
52249;BME280;38541;48.130;8.378;2024-03-02T04:07:45;91552.28;;;1.70;71.37
52249;BME280;38541;48.130;8.378;2024-03-02T04:10:11;91554.31;;;1.68;71.25
52249;BME280;38541;48.130;8.378;2024-03-02T04:12:39;91549.63;;;1.65;71.38
52249;BME280;38541;48.130;8.378;2024-03-02T04:15:06;91548.53;;;1.61;71.56
52249;BME280;38541;48.130;8.378;2024-03-02T04:17:33;91543.81;;;1.58;71.86
52249;BME280;38541;48.130;8.378;2024-03-02T04:20:00;91548.53;;;1.61;71.95
52249;BME280;38541;48.130;8.378;2024-03-02T04:22:27;91552.44;;;1.64;71.14
52249;BME280;38541;48.130;8.378;2024-03-02T04:24:54;91551.66;;;1.63;71.94
52249;BME280;38541;48.130;8.378;2024-03-02T04:27:21;91553.72;;;1.61;71.76
52249;BME280;38541;48.130;8.378;2024-03-02T04:29:48;91552.31;;;1.53;71.25
52249;BME280;38541;48.130;8.378;2024-03-02T04:32:15;91547.34;;;1.52;71.70
52249;BME280;38541;48.130;8.378;2024-03-02T04:34:41;91546.31;;;1.53;71.76
52249;BME280;38541;48.130;8.378;2024-03-02T04:37:10;91548.91;;;1.53;72.14
52249;BME280;38541;48.130;8.378;2024-03-02T04:39:38;91552.47;;;1.47;72.32
52249;BME280;38541;48.130;8.378;2024-03-02T04:42:05;91545.16;;;1.44;71.60
52249;BME280;38541;48.130;8.378;2024-03-02T04:44:31;91555.19;;;1.40;71.83
52249;BME280;38541;48.130;8.378;2024-03-02T04:46:57;91555.41;;;1.38;71.72
52249;BME280;38541;48.130;8.378;2024-03-02T04:49:24;91557.78;;;1.40;72.02
52249;BME280;38541;48.130;8.378;2024-03-02T04:51:51;91558.09;;;1.44;71.64
52249;BME280;38541;48.130;8.378;2024-03-02T04:54:18;91560.91;;;1.42;72.00
52249;BME280;38541;48.130;8.378;2024-03-02T04:56:44;91563.66;;;1.35;71.77
52249;BME280;38541;48.130;8.378;2024-03-02T04:59:16;91572.75;;;1.38;72.43
52249;BME280;38541;48.130;8.378;2024-03-02T05:01:44;91576.44;;;1.42;72.47
52249;BME280;38541;48.130;8.378;2024-03-02T05:04:11;91573.63;;;1.44;72.98
52249;BME280;38541;48.130;8.378;2024-03-02T05:06:38;91580.38;;;1.45;73.16
52249;BME280;38541;48.130;8.378;2024-03-02T05:09:08;91578.00;;;1.43;73.73
52249;BME280;38541;48.130;8.378;2024-03-02T05:11:35;91580.06;;;1.41;72.77
52249;BME280;38541;48.130;8.378;2024-03-02T05:14:05;91577.69;;;1.39;72.45
52249;BME280;38541;48.130;8.378;2024-03-02T05:16:36;91584.44;;;1.40;73.27
52249;BME280;38541;48.130;8.378;2024-03-02T05:19:06;91577.41;;;1.36;72.69
52249;BME280;38541;48.130;8.378;2024-03-02T05:21:34;91584.13;;;1.37;72.89
52249;BME280;38541;48.130;8.378;2024-03-02T05:24:00;91581.28;;;1.38;72.74
52249;BME280;38541;48.130;8.378;2024-03-02T05:26:27;91587.59;;;1.42;73.38
52249;BME280;38541;48.130;8.378;2024-03-02T05:28:53;91585.56;;;1.45;74.28
52249;BME280;38541;48.130;8.378;2024-03-02T05:31:20;91585.06;;;1.48;74.60
52249;BME280;38541;48.130;8.378;2024-03-02T05:33:46;91584.59;;;1.51;74.64
52249;BME280;38541;48.130;8.378;2024-03-02T05:36:13;91588.97;;;1.50;74.03
52249;BME280;38541;48.130;8.378;2024-03-02T05:38:39;91589.59;;;1.40;72.97
52249;BME280;38541;48.130;8.378;2024-03-02T05:41:06;91583.34;;;1.36;72.44
52249;BME280;38541;48.130;8.378;2024-03-02T05:43:32;91586.47;;;1.38;73.02
52249;BME280;38541;48.130;8.378;2024-03-02T05:45:59;91590.63;;;1.39;72.76
52249;BME280;38541;48.130;8.378;2024-03-02T05:48:26;91596.81;;;1.38;73.75
52249;BME280;38541;48.130;8.378;2024-03-02T05:50:52;91592.19;;;1.40;73.94
52249;BME280;38541;48.130;8.378;2024-03-02T05:53:19;91588.69;;;1.47;73.94
52249;BME280;38541;48.130;8.378;2024-03-02T05:55:45;91585.63;;;1.50;74.83
52249;BME280;38541;48.130;8.378;2024-03-02T05:58:12;91587.97;;;1.51;74.24
52249;BME280;38541;48.130;8.378;2024-03-02T06:00:52;91584.94;;;1.54;74.18
52249;BME280;38541;48.130;8.378;2024-03-02T06:03:21;91584.19;;;1.59;74.45
52249;BME280;38541;48.130;8.378;2024-03-02T06:05:47;91585.69;;;1.55;73.45
52249;BME280;38541;48.130;8.378;2024-03-02T06:08:15;91587.50;;;1.54;74.34
52249;BME280;38541;48.130;8.378;2024-03-02T06:10:42;91586.50;;;1.55;73.92
52249;BME280;38541;48.130;8.378;2024-03-02T06:13:09;91588.34;;;1.60;74.24
52249;BME280;38541;48.130;8.378;2024-03-02T06:15:35;91585.22;;;1.58;73.81
52249;BME280;38541;48.130;8.378;2024-03-02T06:18:03;91585.75;;;1.60;74.41
52249;BME280;38541;48.130;8.378;2024-03-02T06:20:29;91588.69;;;1.64;73.20
52249;BME280;38541;48.130;8.378;2024-03-02T06:23:02;91585.53;;;1.62;73.50
52249;BME280;38541;48.130;8.378;2024-03-02T06:25:29;91590.72;;;1.62;73.86
52249;BME280;38541;48.130;8.378;2024-03-02T06:27:55;91581.16;;;1.62;73.86
52249;BME280;38541;48.130;8.378;2024-03-02T06:30:22;91578.00;;;1.60;73.44
52249;BME280;38541;48.130;8.378;2024-03-02T06:32:49;91581.63;;;1.59;73.48
52249;BME280;38541;48.130;8.378;2024-03-02T06:35:15;91592.75;;;1.60;73.50
52249;BME280;38541;48.130;8.378;2024-03-02T06:37:42;91596.06;;;1.55;73.73
52249;BME280;38541;48.130;8.378;2024-03-02T06:40:09;91601.69;;;1.52;73.95
52249;BME280;38541;48.130;8.378;2024-03-02T06:42:35;91593.47;;;1.55;73.78
52249;BME280;38541;48.130;8.378;2024-03-02T06:45:03;91587.81;;;1.58;73.86
52249;BME280;38541;48.130;8.378;2024-03-02T06:47:29;91595.41;;;1.65;74.02
52249;BME280;38541;48.130;8.378;2024-03-02T06:49:56;91594.34;;;1.61;73.36
52249;BME280;38541;48.130;8.378;2024-03-02T06:52:24;91591.19;;;1.59;73.37
52249;BME280;38541;48.130;8.378;2024-03-02T06:54:51;91587.59;;;1.60;73.56
52249;BME280;38541;48.130;8.378;2024-03-02T06:57:18;91591.03;;;1.65;73.44
52249;BME280;38541;48.130;8.378;2024-03-02T06:59:46;91582.66;;;1.75;73.53
52249;BME280;38541;48.130;8.378;2024-03-02T07:02:13;91583.56;;;1.86;73.32
52249;BME280;38541;48.130;8.378;2024-03-02T07:04:40;91582.56;;;1.87;73.35
52249;BME280;38541;48.130;8.378;2024-03-02T07:07:06;91582.78;;;1.85;73.07
52249;BME280;38541;48.130;8.378;2024-03-02T07:09:33;91586.28;;;1.96;73.52
52249;BME280;38541;48.130;8.378;2024-03-02T07:11:59;91588.41;;;2.17;75.25
52249;BME280;38541;48.130;8.378;2024-03-02T07:14:26;91583.69;;;2.36;76.94
52249;BME280;38541;48.130;8.378;2024-03-02T07:17:12;91596.31;;;2.49;77.34
52249;BME280;38541;48.130;8.378;2024-03-02T07:19:39;91601.16;;;2.63;78.38
52249;BME280;38541;48.130;8.378;2024-03-02T07:22:06;91603.97;;;2.83;78.16
52249;BME280;38541;48.130;8.378;2024-03-02T07:24:44;91608.25;;;2.95;78.68
52249;BME280;38541;48.130;8.378;2024-03-02T07:27:12;91614.56;;;3.04;78.03
52249;BME280;38541;48.130;8.378;2024-03-02T07:29:39;91615.22;;;3.17;78.42
52249;BME280;38541;48.130;8.378;2024-03-02T07:32:07;91614.06;;;3.30;78.60
52249;BME280;38541;48.130;8.378;2024-03-02T07:34:34;91607.38;;;3.39;77.84
52249;BME280;38541;48.130;8.378;2024-03-02T07:37:01;91611.13;;;3.53;77.88
52249;BME280;38541;48.130;8.378;2024-03-02T07:39:28;91617.19;;;3.64;77.92
52249;BME280;38541;48.130;8.378;2024-03-02T07:41:54;91613.66;;;3.76;77.75
52249;BME280;38541;48.130;8.378;2024-03-02T07:44:21;91611.72;;;3.93;77.31
52249;BME280;38541;48.130;8.378;2024-03-02T07:46:48;91608.66;;;4.02;76.78
52249;BME280;38541;48.130;8.378;2024-03-02T07:49:18;91607.16;;;4.11;76.65
52249;BME280;38541;48.130;8.378;2024-03-02T07:51:45;91601.25;;;4.21;76.61
52249;BME280;38541;48.130;8.378;2024-03-02T07:54:11;91607.28;;;4.26;76.22
52249;BME280;38541;48.130;8.378;2024-03-02T07:56:38;91613.53;;;4.31;75.48
52249;BME280;38541;48.130;8.378;2024-03-02T07:59:05;91610.44;;;4.39;75.29
52249;BME280;38541;48.130;8.378;2024-03-02T08:01:32;91603.44;;;4.39;75.25
52249;BME280;38541;48.130;8.378;2024-03-02T08:04:00;91601.09;;;4.43;75.09
52249;BME280;38541;48.130;8.378;2024-03-02T08:06:27;91597.72;;;4.37;74.76
52249;BME280;38541;48.130;8.378;2024-03-02T08:08:55;91594.84;;;4.39;74.60
52249;BME280;38541;48.130;8.378;2024-03-02T08:11:22;91595.44;;;4.51;75.43
52249;BME280;38541;48.130;8.378;2024-03-02T08:13:48;91593.66;;;4.62;75.18
52249;BME280;38541;48.130;8.378;2024-03-02T08:16:16;91593.66;;;4.67;75.16
52249;BME280;38541;48.130;8.378;2024-03-02T08:18:42;91592.41;;;4.75;74.97
52249;BME280;38541;48.130;8.378;2024-03-02T08:21:09;91588.00;;;4.81;74.97
52249;BME280;38541;48.130;8.378;2024-03-02T08:23:36;91590.09;;;4.84;75.06
52249;BME280;38541;48.130;8.378;2024-03-02T08:26:06;91585.69;;;4.90;75.05
52249;BME280;38541;48.130;8.378;2024-03-02T08:28:33;91593.75;;;4.88;75.00
52249;BME280;38541;48.130;8.378;2024-03-02T08:31:00;91582.06;;;4.91;74.80
52249;BME280;38541;48.130;8.378;2024-03-02T08:33:26;91589.06;;;4.90;74.82
52249;BME280;38541;48.130;8.378;2024-03-02T08:35:53;91592.47;;;4.96;75.00
52249;BME280;38541;48.130;8.378;2024-03-02T08:38:19;91592.75;;;4.94;74.90
52249;BME280;38541;48.130;8.378;2024-03-02T08:40:46;91593.53;;;5.00;74.79
52249;BME280;38541;48.130;8.378;2024-03-02T08:43:13;91585.75;;;5.05;74.81
52249;BME280;38541;48.130;8.378;2024-03-02T08:45:40;91586.28;;;5.12;74.84
52249;BME280;38541;48.130;8.378;2024-03-02T08:48:07;91585.00;;;5.15;74.87
52249;BME280;38541;48.130;8.378;2024-03-02T08:50:37;91581.09;;;5.23;75.10
52249;BME280;38541;48.130;8.378;2024-03-02T08:53:04;91572.25;;;5.34;74.74
52249;BME280;38541;48.130;8.378;2024-03-02T08:55:30;91572.28;;;5.45;74.80
52249;BME280;38541;48.130;8.378;2024-03-02T08:57:57;91573.06;;;5.55;74.57
52249;BME280;38541;48.130;8.378;2024-03-02T09:00:24;91574.91;;;5.60;74.38
52249;BME280;38541;48.130;8.378;2024-03-02T09:02:51;91566.03;;;5.61;73.54
52249;BME280;38541;48.130;8.378;2024-03-02T09:05:18;91567.06;;;5.70;74.05
52249;BME280;38541;48.130;8.378;2024-03-02T09:07:44;91563.16;;;5.83;73.78
52249;BME280;38541;48.130;8.378;2024-03-02T09:10:11;91564.19;;;5.98;73.74
52249;BME280;38541;48.130;8.378;2024-03-02T09:12:38;91561.06;;;6.06;73.72
52249;BME280;38541;48.130;8.378;2024-03-02T09:15:05;91563.91;;;6.15;73.95
52249;BME280;38541;48.130;8.378;2024-03-02T09:17:32;91563.41;;;6.18;73.81
52249;BME280;38541;48.130;8.378;2024-03-02T09:19:59;91564.97;;;6.24;73.69
52249;BME280;38541;48.130;8.378;2024-03-02T09:22:26;91565.47;;;6.26;73.71
52249;BME280;38541;48.130;8.378;2024-03-02T09:24:52;91562.06;;;6.31;73.24
52249;BME280;38541;48.130;8.378;2024-03-02T09:27:19;91559.22;;;6.27;73.24
52249;BME280;38541;48.130;8.378;2024-03-02T09:29:45;91557.88;;;6.35;73.04
52249;BME280;38541;48.130;8.378;2024-03-02T09:32:12;91546.66;;;6.40;73.10
52249;BME280;38541;48.130;8.378;2024-03-02T09:34:40;91548.97;;;6.52;72.69
52249;BME280;38541;48.130;8.378;2024-03-02T09:37:07;91543.97;;;6.61;72.74
52249;BME280;38541;48.130;8.378;2024-03-02T09:39:34;91535.88;;;6.67;72.03
52249;BME280;38541;48.130;8.378;2024-03-02T09:42:01;91538.69;;;6.81;71.46
52249;BME280;38541;48.130;8.378;2024-03-02T09:44:28;91541.72;;;6.99;71.03
52249;BME280;38541;48.130;8.378;2024-03-02T09:46:54;91535.91;;;7.07;70.60
52249;BME280;38541;48.130;8.378;2024-03-02T09:49:21;91536.72;;;7.08;70.27
52249;BME280;38541;48.130;8.378;2024-03-02T09:51:48;91540.03;;;7.19;70.28
52249;BME280;38541;48.130;8.378;2024-03-02T09:54:16;91533.72;;;7.30;69.59
52249;BME280;38541;48.130;8.378;2024-03-02T09:56:49;91529.72;;;7.43;68.77
52249;BME280;38541;48.130;8.378;2024-03-02T09:59:16;91531.94;;;7.60;69.00
52249;BME280;38541;48.130;8.378;2024-03-02T10:01:58;91536.53;;;7.74;68.72
52249;BME280;38541;48.130;8.378;2024-03-02T10:04:26;91532.25;;;7.88;67.65
52249;BME280;38541;48.130;8.378;2024-03-02T10:07:15;91522.47;;;7.99;67.27
52249;BME280;38541;48.130;8.378;2024-03-02T10:09:43;91522.81;;;8.17;67.76
52249;BME280;38541;48.130;8.378;2024-03-02T10:12:12;91520.38;;;8.25;66.18
52249;BME280;38541;48.130;8.378;2024-03-02T10:14:39;91519.69;;;8.39;66.21
52249;BME280;38541;48.130;8.378;2024-03-02T10:17:07;91521.91;;;8.56;65.89
52249;BME280;38541;48.130;8.378;2024-03-02T10:19:34;91517.03;;;8.68;64.86
52249;BME280;38541;48.130;8.378;2024-03-02T10:22:03;91513.19;;;8.85;64.61
52249;BME280;38541;48.130;8.378;2024-03-02T10:24:43;91517.44;;;9.00;64.72
52249;BME280;38541;48.130;8.378;2024-03-02T10:27:18;91503.72;;;9.08;63.89
52249;BME280;38541;48.130;8.378;2024-03-02T10:29:49;91508.69;;;9.10;63.48
52249;BME280;38541;48.130;8.378;2024-03-02T10:32:16;91509.00;;;9.22;63.79
52249;BME280;38541;48.130;8.378;2024-03-02T10:34:45;91502.72;;;9.42;64.13
52249;BME280;38541;48.130;8.378;2024-03-02T10:37:12;91501.97;;;9.56;63.78
52249;BME280;38541;48.130;8.378;2024-03-02T10:39:40;91499.09;;;9.71;62.68
52249;BME280;38541;48.130;8.378;2024-03-02T10:42:07;91498.47;;;9.80;62.20
52249;BME280;38541;48.130;8.378;2024-03-02T10:44:34;91505.09;;;9.91;62.79
52249;BME280;38541;48.130;8.378;2024-03-02T10:47:03;91491.09;;;9.96;62.48
52249;BME280;38541;48.130;8.378;2024-03-02T10:49:31;91491.38;;;9.94;61.63
52249;BME280;38541;48.130;8.378;2024-03-02T10:51:58;91496.19;;;10.06;62.07
52249;BME280;38541;48.130;8.378;2024-03-02T10:54:25;91491.22;;;10.19;61.50
52249;BME280;38541;48.130;8.378;2024-03-02T10:56:55;91491.38;;;10.41;61.90
52249;BME280;38541;48.130;8.378;2024-03-02T10:59:28;91485.22;;;10.60;60.74
52249;BME280;38541;48.130;8.378;2024-03-02T11:02:00;91476.28;;;10.75;59.71
52249;BME280;38541;48.130;8.378;2024-03-02T11:04:31;91472.75;;;10.94;60.05
52249;BME280;38541;48.130;8.378;2024-03-02T11:07:07;91473.59;;;11.03;58.63
52249;BME280;38541;48.130;8.378;2024-03-02T11:09:35;91477.84;;;11.13;58.69
52249;BME280;38541;48.130;8.378;2024-03-02T11:12:07;91471.34;;;11.10;56.71
52249;BME280;38541;48.130;8.378;2024-03-02T11:14:38;91471.97;;;11.30;57.62
52249;BME280;38541;48.130;8.378;2024-03-02T11:17:06;91468.88;;;11.51;56.61
52249;BME280;38541;48.130;8.378;2024-03-02T11:19:34;91463.84;;;11.63;56.37
52249;BME280;38541;48.130;8.378;2024-03-02T11:22:02;91470.00;;;11.81;57.42
52249;BME280;38541;48.130;8.378;2024-03-02T11:24:30;91472.88;;;11.94;56.70
52249;BME280;38541;48.130;8.378;2024-03-02T11:27:07;91464.03;;;11.98;56.10
52249;BME280;38541;48.130;8.378;2024-03-02T11:29:43;91468.00;;;12.10;55.25
52249;BME280;38541;48.130;8.378;2024-03-02T11:32:14;91465.25;;;12.15;54.38
52249;BME280;38541;48.130;8.378;2024-03-02T11:34:43;91461.91;;;12.32;55.45
52249;BME280;38541;48.130;8.378;2024-03-02T11:37:12;91462.88;;;12.45;54.92
52249;BME280;38541;48.130;8.378;2024-03-02T11:39:39;91449.41;;;12.47;53.50
52249;BME280;38541;48.130;8.378;2024-03-02T11:42:09;91450.81;;;12.44;53.46
52249;BME280;38541;48.130;8.378;2024-03-02T11:44:37;91453.78;;;12.60;54.55
52249;BME280;38541;48.130;8.378;2024-03-02T11:47:08;91444.81;;;12.70;53.57
52249;BME280;38541;48.130;8.378;2024-03-02T11:52:08;91443.13;;;12.92;53.54
52249;BME280;38541;48.130;8.378;2024-03-02T11:54:41;91445.03;;;13.09;52.84
52249;BME280;38541;48.130;8.378;2024-03-02T11:57:15;91433.41;;;13.19;52.30
52249;BME280;38541;48.130;8.378;2024-03-02T11:59:42;91429.34;;;13.30;51.40
52249;BME280;38541;48.130;8.378;2024-03-02T12:02:15;91429.19;;;13.35;50.93
52249;BME280;38541;48.130;8.378;2024-03-02T12:04:43;91431.25;;;13.56;50.29
52249;BME280;38541;48.130;8.378;2024-03-02T12:07:11;91429.66;;;13.64;50.95
52249;BME280;38541;48.130;8.378;2024-03-02T12:09:39;91428.50;;;13.91;51.41
52249;BME280;38541;48.130;8.378;2024-03-02T12:12:07;91416.72;;;13.97;49.97
52249;BME280;38541;48.130;8.378;2024-03-02T12:14:36;91413.44;;;14.01;48.12
52249;BME280;38541;48.130;8.378;2024-03-02T12:17:03;91416.94;;;14.13;49.22
52249;BME280;38541;48.130;8.378;2024-03-02T12:19:31;91413.03;;;14.20;49.30
52249;BME280;38541;48.130;8.378;2024-03-02T12:21:58;91414.72;;;14.24;49.03
52249;BME280;38541;48.130;8.378;2024-03-02T12:24:29;91412.84;;;14.34;48.67
52249;BME280;38541;48.130;8.378;2024-03-02T12:26:56;91402.81;;;14.48;48.85
52249;BME280;38541;48.130;8.378;2024-03-02T12:29:23;91409.63;;;14.49;48.63
52249;BME280;38541;48.130;8.378;2024-03-02T12:31:51;91404.25;;;14.76;49.48
52249;BME280;38541;48.130;8.378;2024-03-02T12:34:19;91395.16;;;14.86;47.85
52249;BME280;38541;48.130;8.378;2024-03-02T12:36:46;91396.97;;;14.94;47.80
52249;BME280;38541;48.130;8.378;2024-03-02T12:39:16;91392.44;;;14.94;47.95
52249;BME280;38541;48.130;8.378;2024-03-02T12:41:43;91394.13;;;14.99;47.35
52249;BME280;38541;48.130;8.378;2024-03-02T12:44:10;91393.94;;;15.04;47.31
52249;BME280;38541;48.130;8.378;2024-03-02T12:46:36;91386.66;;;15.22;47.46
52249;BME280;38541;48.130;8.378;2024-03-02T12:49:22;91392.81;;;15.48;46.70
52249;BME280;38541;48.130;8.378;2024-03-02T12:51:48;91379.59;;;15.60;45.18
52249;BME280;38541;48.130;8.378;2024-03-02T12:54:22;91371.84;;;15.76;46.53
52249;BME280;38541;48.130;8.378;2024-03-02T12:56:48;91375.03;;;15.82;46.25
52249;BME280;38541;48.130;8.378;2024-03-02T12:59:19;91373.13;;;16.04;46.23
52249;BME280;38541;48.130;8.378;2024-03-02T13:01:54;91376.66;;;16.08;45.64
52249;BME280;38541;48.130;8.378;2024-03-02T13:04:27;91372.34;;;16.16;44.24
52249;BME280;38541;48.130;8.378;2024-03-02T13:06:55;91374.69;;;16.30;43.93
52249;BME280;38541;48.130;8.378;2024-03-02T13:09:25;91363.84;;;16.35;44.19
52249;BME280;38541;48.130;8.378;2024-03-02T13:11:53;91359.78;;;16.50;44.50
52249;BME280;38541;48.130;8.378;2024-03-02T13:14:21;91361.16;;;16.72;44.77
52249;BME280;38541;48.130;8.378;2024-03-02T13:16:49;91360.22;;;16.93;43.61
52249;BME280;38541;48.130;8.378;2024-03-02T13:19:18;91359.38;;;16.89;43.03
52249;BME280;38541;48.130;8.378;2024-03-02T13:21:47;91358.00;;;16.95;43.13